Time;durP1;ratioP1;P1;durP2;ratioP2;P2;SDS_P1;SDS_P2;PMS_P1;PMS_P2;Temp;Humidity;BMP_temperature;BMP_pressure;BME280_temperature;BME280_humidity;BME280_pressure;Samples;Min_cycle;Max_cycle;Signal;HPM_P1;HPM_P2
2021/12/09 00:00:19;;;;;;;4.50;1.65;;;3.20;91.80;;;;;;5043248;28;20025;-72
2021/12/09 00:02:46;;;;;;;7.45;2.05;;;3.20;91.80;;;;;;5040720;28;20108;-72
2021/12/09 00:05:16;;;;;;;5.32;2.03;;;3.20;91.80;;;;;;5039403;28;20558;-73
2021/12/09 00:07:43;;;;;;;7.88;1.83;;;3.20;91.90;;;;;;5027214;28;20488;-72
2021/12/09 00:10:12;;;;;;;13.00;2.45;;;3.20;91.90;;;;;;5039852;28;20048;-73
2021/12/09 00:12:38;;;;;;;12.77;4.00;;;3.20;91.90;;;;;;5039768;28;20028;-73
2021/12/09 00:15:05;;;;;;;7.65;3.10;;;3.20;91.90;;;;;;5039872;28;20068;-72
2021/12/09 00:17:31;;;;;;;7.80;3.10;;;3.20;91.90;;;;;;5039027;28;20029;-72
2021/12/09 00:19:57;;;;;;;5.32;2.03;;;3.30;91.90;;;;;;5038172;28;20033;-72
2021/12/09 00:22:23;;;;;;;5.28;2.08;;;3.30;91.80;;;;;;5027936;28;20030;-72
2021/12/09 00:24:48;;;;;;;11.40;2.45;;;3.20;91.80;;;;;;5039499;28;20092;-72
2021/12/09 00:27:14;;;;;;;7.10;2.55;;;3.30;91.70;;;;;;5039681;28;20053;-72
2021/12/09 00:29:40;;;;;;;9.07;2.25;;;3.20;91.70;;;;;;5039532;28;20049;-73
2021/12/09 00:32:07;;;;;;;4.15;2.00;;;3.20;91.70;;;;;;5039693;28;20018;-73
2021/12/09 00:34:35;;;;;;;5.20;2.10;;;3.30;91.70;;;;;;5039511;28;20108;-72
2021/12/09 00:37:18;;;;;;;6.65;1.80;;;3.30;91.80;;;;;;5039704;28;20437;-72
2021/12/09 00:39:45;;;;;;;6.57;1.80;;;3.30;91.80;;;;;;5039271;28;20045;-72
2021/12/09 00:42:11;;;;;;;6.38;2.10;;;3.30;91.70;;;;;;5039337;28;20025;-72
2021/12/09 00:44:37;;;;;;;7.13;1.77;;;3.30;91.70;;;;;;5038960;28;20021;-72
2021/12/09 00:47:04;;;;;;;5.65;1.90;;;3.30;91.70;;;;;;5039353;28;20032;-72
2021/12/09 00:49:31;;;;;;;5.40;1.80;;;3.30;91.70;;;;;;5039343;28;20032;-72
2021/12/09 00:52:01;;;;;;;6.45;2.40;;;3.20;91.70;;;;;;5039090;28;20022;-72
2021/12/09 00:54:27;;;;;;;10.02;2.45;;;3.20;91.70;;;;;;5039005;28;20115;-72
2021/12/09 00:56:53;;;;;;;7.03;1.60;;;3.20;91.70;;;;;;5039399;28;20032;-73
2021/12/09 00:59:19;;;;;;;5.07;2.08;;;3.20;91.70;;;;;;5039064;28;20481;-72
2021/12/09 01:01:45;;;;;;;5.15;1.92;;;3.20;91.70;;;;;;5039145;28;20095;-72
2021/12/09 01:04:12;;;;;;;5.72;2.03;;;3.20;91.70;;;;;;5038688;28;20080;-72
2021/12/09 01:06:38;;;;;;;9.82;2.03;;;3.20;91.70;;;;;;5037351;28;20093;-72
2021/12/09 01:09:05;;;;;;;4.00;1.70;;;3.20;91.70;;;;;;5038704;28;20488;-72
2021/12/09 01:11:31;;;;;;;7.13;2.20;;;3.20;91.70;;;;;;5038821;28;20017;-72
2021/12/09 01:13:57;;;;;;;5.70;2.20;;;3.20;91.70;;;;;;5037422;28;20036;-72
2021/12/09 01:16:24;;;;;;;6.85;1.95;;;3.20;91.70;;;;;;5038701;28;20496;-73
2021/12/09 01:18:50;;;;;;;5.63;1.60;;;3.20;91.80;;;;;;5038041;28;20021;-72
2021/12/09 01:21:16;;;;;;;8.45;1.95;;;3.20;91.80;;;;;;5026274;28;20397;-72
2021/12/09 01:23:41;;;;;;;3.35;1.67;;;3.20;91.80;;;;;;5038124;28;20065;-72
2021/12/09 01:26:09;;;;;;;8.63;2.05;;;3.20;91.80;;;;;;5038734;28;20492;-72
2021/12/09 01:28:54;;;;;;;6.35;1.98;;;3.20;91.80;;;;;;5038496;28;20037;-72
2021/12/09 01:31:28;;;;;;;7.38;1.65;;;3.20;91.90;;;;;;5037174;28;20022;-72
2021/12/09 01:33:59;;;;;;;8.27;1.75;;;3.20;91.90;;;;;;5038393;28;20108;-73
2021/12/09 01:36:25;;;;;;;7.40;2.42;;;3.20;91.80;;;;;;5038140;28;20044;-73
2021/12/09 01:38:51;;;;;;;5.93;1.98;;;3.20;91.90;;;;;;5038281;28;20050;-73
2021/12/09 01:41:17;;;;;;;8.25;2.30;;;3.20;91.80;;;;;;5038215;28;20018;-72
2021/12/09 01:43:43;;;;;;;9.18;2.40;;;3.20;91.80;;;;;;5038350;28;20095;-72
2021/12/09 01:46:12;;;;;;;5.65;1.83;;;3.20;91.80;;;;;;5037793;28;21776;-72
2021/12/09 01:48:39;;;;;;;9.35;2.00;;;3.20;91.80;;;;;;5038380;28;20476;-73
2021/12/09 01:51:05;;;;;;;7.28;2.50;;;3.20;91.80;;;;;;5037766;28;20025;-72
2021/12/09 01:53:31;;;;;;;6.05;1.42;;;3.20;91.80;;;;;;5038131;28;20022;-73
2021/12/09 01:55:59;;;;;;;5.70;1.88;;;3.20;91.80;;;;;;5037972;28;20032;-72
2021/12/09 01:58:26;;;;;;;5.93;1.60;;;3.20;91.80;;;;;;5038048;28;20061;-72
2021/12/09 02:00:52;;;;;;;5.63;2.55;;;3.20;91.80;;;;;;5037901;28;20026;-73
2021/12/09 02:03:18;;;;;;;9.65;1.73;;;3.20;91.80;;;;;;5037840;28;20435;-72
2021/12/09 02:05:44;;;;;;;5.45;1.83;;;3.20;91.80;;;;;;5037541;28;20032;-72
2021/12/09 02:08:14;;;;;;;8.52;2.47;;;3.20;91.80;;;;;;5037787;28;20029;-72
2021/12/09 02:10:42;;;;;;;8.30;1.92;;;3.30;91.80;;;;;;5035729;28;20151;-72
2021/12/09 02:13:08;;;;;;;4.85;1.83;;;3.30;91.80;;;;;;5037627;28;20017;-72
2021/12/09 02:15:35;;;;;;;7.57;2.00;;;3.30;91.80;;;;;;5037587;28;20080;-72
2021/12/09 02:18:06;;;;;;;5.97;2.45;;;3.30;91.80;;;;;;5035486;28;20079;-73
2021/12/09 02:20:34;;;;;;;8.23;2.80;;;3.30;91.80;;;;;;5029857;28;20030;-72
2021/12/09 02:23:00;;;;;;;5.63;1.70;;;3.30;91.70;;;;;;5031007;28;20080;-72
2021/12/09 02:25:26;;;;;;;9.48;2.20;;;3.30;91.60;;;;;;5037422;28;20025;-72
2021/12/09 02:27:52;;;;;;;6.68;2.47;;;3.30;91.60;;;;;;5037034;28;20029;-72
2021/12/09 02:30:18;;;;;;;6.63;2.45;;;3.30;91.60;;;;;;5024714;28;20484;-72
2021/12/09 02:32:44;;;;;;;5.88;1.65;;;3.30;91.60;;;;;;5037328;28;20026;-72
2021/12/09 02:35:11;;;;;;;13.52;2.60;;;3.30;91.50;;;;;;5037306;28;20107;-72
2021/12/09 02:37:37;;;;;;;5.10;2.08;;;3.30;91.60;;;;;;5037327;28;20026;-72
2021/12/09 02:40:06;;;;;;;10.25;2.40;;;3.20;91.60;;;;;;5037270;28;20123;-72
2021/12/09 02:42:34;;;;;;;9.13;2.35;;;3.20;91.60;;;;;;5035884;28;20033;-72
2021/12/09 02:45:00;;;;;;;6.93;2.60;;;3.20;91.60;;;;;;5037013;28;20021;-72
2021/12/09 02:47:26;;;;;;;11.82;2.30;;;3.20;91.60;;;;;;5037232;28;20061;-72
2021/12/09 02:49:52;;;;;;;8.43;2.45;;;3.20;91.60;;;;;;5037130;28;20546;-72
2021/12/09 02:52:19;;;;;;;14.43;2.38;;;3.20;91.60;;;;;;5037053;28;20061;-72
2021/12/09 02:54:45;;;;;;;7.97;2.33;;;3.20;91.70;;;;;;5022997;28;20022;-72
2021/12/09 02:57:11;;;;;;;8.00;2.60;;;3.20;91.60;;;;;;5037152;28;20435;-72
2021/12/09 02:59:37;;;;;;;6.30;2.75;;;3.20;91.70;;;;;;5037491;28;20080;-72
2021/12/09 03:02:06;;;;;;;7.93;2.33;;;3.20;91.70;;;;;;5036982;28;20025;-72
2021/12/09 03:04:53;;;;;;;10.10;3.13;;;3.20;91.80;;;;;;5037312;28;20030;-72
2021/12/09 03:07:36;;;;;;;9.93;2.92;;;3.10;91.70;;;;;;5036862;28;20041;-72
2021/12/09 03:10:20;;;;;;;9.25;2.42;;;3.20;91.80;;;;;;5037086;28;20496;-72
2021/12/09 03:12:49;;;;;;;7.28;2.10;;;3.20;91.80;;;;;;5033394;28;20021;-72
2021/12/09 03:15:16;;;;;;;12.65;2.42;;;3.20;91.80;;;;;;5037108;28;20037;-72
2021/12/09 03:17:43;;;;;;;6.45;1.90;;;3.20;91.80;;;;;;5036416;28;20052;-72
2021/12/09 03:20:11;;;;;;;10.05;2.90;;;3.20;91.80;;;;;;5033833;28;20148;-72
2021/12/09 03:22:38;;;;;;;7.75;3.55;;;3.20;91.80;;;;;;5027034;28;20032;-72
2021/12/09 03:25:07;;;;;;;9.65;2.10;;;3.20;91.80;;;;;;5036820;28;20032;-72
2021/12/09 03:27:33;;;;;;;12.35;2.35;;;3.20;91.80;;;;;;5036987;28;20021;-73
2021/12/09 03:30:00;;;;;;;7.95;2.35;;;3.20;91.80;;;;;;5036952;28;20014;-72
2021/12/09 03:32:25;;;;;;;10.85;2.35;;;3.20;91.80;;;;;;5036876;28;20020;-72
2021/12/09 03:34:53;;;;;;;10.00;2.83;;;3.30;91.90;;;;;;5036884;28;20017;-72
2021/12/09 03:37:22;;;;;;;5.68;2.20;;;3.20;91.90;;;;;;5036790;28;20030;-72
2021/12/09 03:39:50;;;;;;;9.90;2.40;;;3.20;91.90;;;;;;5039240;28;20508;-72
2021/12/09 03:42:18;;;;;;;9.18;2.70;;;3.20;91.90;;;;;;5040523;28;20460;-72
2021/12/09 03:44:46;;;;;;;8.30;2.17;;;3.20;91.90;;;;;;5040083;28;20484;-72
2021/12/09 03:47:14;;;;;;;8.85;2.03;;;3.20;91.90;;;;;;5040481;28;20022;-72
2021/12/09 03:49:43;;;;;;;8.00;2.15;;;3.10;91.90;;;;;;5040320;28;20025;-72
2021/12/09 03:52:11;;;;;;;10.35;2.35;;;3.10;91.90;;;;;;5040128;28;20104;-72
2021/12/09 03:54:37;;;;;;;6.78;2.30;;;3.10;91.80;;;;;;5040167;28;20417;-72
2021/12/09 03:57:04;;;;;;;6.13;2.00;;;3.00;91.70;;;;;;5040420;28;20040;-72
2021/12/09 03:59:30;;;;;;;6.85;2.20;;;3.00;91.50;;;;;;5040118;28;20022;-72
2021/12/09 04:01:56;;;;;;;6.13;2.08;;;2.90;91.40;;;;;;5040234;28;20055;-72
2021/12/09 04:04:22;;;;;;;3.92;1.75;;;2.80;91.30;;;;;;5040239;28;20018;-72
2021/12/09 04:06:48;;;;;;;4.85;2.00;;;2.80;91.30;;;;;;5039740;28;20021;-72
2021/12/09 04:09:16;;;;;;;6.20;2.10;;;2.70;91.20;;;;;;5040456;28;20099;-72
2021/12/09 04:11:42;;;;;;;8.82;2.28;;;2.70;91.20;;;;;;5039775;28;20111;-72
2021/12/09 04:14:08;;;;;;;4.82;1.80;;;2.60;91.20;;;;;;5040129;28;20052;-71
2021/12/09 04:16:35;;;;;;;6.93;2.53;;;2.60;91.30;;;;;;5039880;28;20407;-72
2021/12/09 04:19:02;;;;;;;5.13;1.67;;;2.50;91.00;;;;;;5040297;28;20034;-72
2021/12/09 04:21:29;;;;;;;5.50;1.80;;;2.40;91.00;;;;;;5026819;28;20073;-72
2021/12/09 04:23:55;;;;;;;5.07;1.90;;;2.40;91.00;;;;;;5039962;28;20104;-72
2021/12/09 04:26:21;;;;;;;7.47;2.30;;;2.40;91.00;;;;;;5039661;28;20045;-72
2021/12/09 04:28:47;;;;;;;8.07;2.10;;;2.30;90.90;;;;;;5039769;28;20885;-72
2021/12/09 04:31:14;;;;;;;8.38;2.00;;;2.30;90.90;;;;;;5039502;28;20113;-72
2021/12/09 04:33:42;;;;;;;5.32;2.10;;;2.30;90.90;;;;;;5039674;28;20029;-72
2021/12/09 04:36:08;;;;;;;6.93;2.13;;;2.20;90.90;;;;;;5039269;28;20107;-72
2021/12/09 04:38:34;;;;;;;7.22;2.13;;;2.20;90.90;;;;;;5039505;28;20041;-72
2021/12/09 04:41:00;;;;;;;5.38;1.95;;;2.20;90.90;;;;;;5039312;28;20037;-72
2021/12/09 04:43:27;;;;;;;5.70;2.03;;;2.20;90.90;;;;;;5039403;28;20073;-72
2021/12/09 04:45:53;;;;;;;6.97;2.00;;;2.10;90.80;;;;;;5038932;28;20032;-72
2021/12/09 04:48:19;;;;;;;10.57;2.00;;;2.10;90.80;;;;;;5039466;28;20087;-72
2021/12/09 04:50:45;;;;;;;5.30;1.95;;;2.10;90.80;;;;;;5037177;28;20022;-72
2021/12/09 04:53:11;;;;;;;4.90;2.05;;;2.10;91.00;;;;;;5039469;28;20022;-72
2021/12/09 04:55:37;;;;;;;6.45;2.10;;;2.10;91.10;;;;;;5037730;28;20025;-72
2021/12/09 04:58:07;;;;;;;12.07;2.88;;;2.00;91.10;;;;;;5039379;28;20480;-72
2021/12/09 05:00:37;;;;;;;8.02;2.30;;;2.00;91.20;;;;;;5039100;28;20104;-72
2021/12/09 05:03:07;;;;;;;7.15;2.20;;;2.00;91.20;;;;;;5039191;28;20026;-72
2021/12/09 05:05:38;;;;;;;8.00;2.83;;;2.00;91.30;;;;;;5038640;28;20084;-72
2021/12/09 05:08:07;;;;;;;5.97;2.20;;;2.00;91.20;;;;;;5039183;28;20461;-72
2021/12/09 05:13:26;;;;;;;6.85;2.95;;;2.00;91.50;;;;;;5033695;28;20043;-72
2021/12/09 05:15:54;;;;;;;9.60;3.00;;;2.00;91.80;;;;;;5039008;28;20021;-72
2021/12/09 05:18:20;;;;;;;15.00;2.97;;;2.00;91.80;;;;;;5038088;28;20033;-73
2021/12/09 05:20:47;;;;;;;6.13;2.20;;;2.00;92.00;;;;;;5029212;28;20029;-73
2021/12/09 05:23:13;;;;;;;9.60;2.35;;;2.00;92.30;;;;;;5033819;28;20025;-72
2021/12/09 05:25:39;;;;;;;9.75;2.80;;;2.10;92.40;;;;;;5038697;28;20032;-73
2021/12/09 05:28:07;;;;;;;7.70;2.45;;;2.10;92.50;;;;;;5038606;28;20477;-73
2021/12/09 05:32:07;;;;;;;8.88;2.45;;;2.10;92.50;;;;;;5038687;28;20484;-72
2021/12/09 05:33:27;;;;;;;13.48;2.65;;;2.10;92.50;;;;;;5038238;28;20448;-73
2021/12/09 05:35:54;;;;;;;6.72;2.10;;;2.10;92.30;;;;;;5038383;28;20022;-72
2021/12/09 05:38:20;;;;;;;8.07;2.40;;;2.00;92.10;;;;;;5038346;28;20049;-70
2021/12/09 05:40:46;;;;;;;4.82;2.28;;;2.00;92.10;;;;;;5038367;28;20052;-70
2021/12/09 05:43:13;;;;;;;8.18;2.20;;;2.00;92.00;;;;;;5025188;28;20030;-73
2021/12/09 05:45:41;;;;;;;4.07;2.20;;;2.00;91.80;;;;;;5037849;28;20554;-73
2021/12/09 05:48:07;;;;;;;8.50;2.90;;;2.00;91.60;;;;;;5038214;28;20029;-77
2021/12/09 05:50:34;;;;;;;9.00;3.10;;;1.90;91.50;;;;;;5038071;28;20022;-76
2021/12/09 05:53:00;;;;;;;9.32;3.92;;;1.90;91.50;;;;;;5038044;28;20029;-84
2021/12/09 05:55:26;;;;;;;10.55;3.55;;;1.90;91.50;;;;;;5038135;28;20032;-83
2021/12/09 05:57:52;;;;;;;5.70;3.28;;;1.90;91.50;;;;;;5038118;28;20361;-76
2021/12/09 06:00:18;;;;;;;7.95;3.72;;;1.90;91.50;;;;;;5038030;28;20060;-81
2021/12/09 06:02:44;;;;;;;8.65;4.40;;;1.90;91.60;;;;;;5035830;28;20030;-75
2021/12/09 06:05:10;;;;;;;10.23;4.78;;;1.90;91.70;;;;;;5037677;28;20087;-77
2021/12/09 06:07:36;;;;;;;9.45;4.72;;;2.00;91.70;;;;;;5037675;28;20021;-78
2021/12/09 06:10:04;;;;;;;15.07;4.28;;;2.00;91.80;;;;;;5037660;28;20029;-76
2021/12/09 06:12:30;;;;;;;7.93;2.75;;;2.00;91.90;;;;;;5037358;28;20063;-78
2021/12/09 06:14:56;;;;;;;10.63;2.85;;;2.10;92.30;;;;;;5037817;28;20057;-75
2021/12/09 06:17:22;;;;;;;8.07;3.15;;;2.20;92.40;;;;;;5036792;28;20512;-78
2021/12/09 06:19:48;;;;;;;5.47;2.45;;;2.20;92.30;;;;;;5037643;28;20080;-77
2021/12/09 06:22:13;;;;;;;5.43;2.28;;;2.20;92.20;;;;;;5023315;28;20491;-77
2021/12/09 06:24:40;;;;;;;9.23;2.88;;;2.20;92.20;;;;;;5037478;28;20048;-77
2021/12/09 06:27:06;;;;;;;6.60;3.08;;;2.30;92.10;;;;;;5037605;28;20484;-77
2021/12/09 06:29:33;;;;;;;9.05;3.28;;;2.20;92.00;;;;;;5037738;28;20025;-78
2021/12/09 06:32:00;;;;;;;5.75;2.72;;;2.20;91.90;;;;;;5037456;28;20022;-77
2021/12/09 06:34:26;;;;;;;7.38;3.35;;;2.20;91.90;;;;;;5037493;28;20049;-78
2021/12/09 06:36:52;;;;;;;11.27;3.95;;;2.20;91.90;;;;;;5037576;28;20021;-77
2021/12/09 06:39:18;;;;;;;12.88;4.32;;;2.20;91.90;;;;;;5037266;28;20052;-77
2021/12/09 06:41:45;;;;;;;9.73;4.30;;;2.20;91.90;;;;;;5037561;28;20021;-77
2021/12/09 06:44:11;;;;;;;9.50;4.30;;;2.20;91.90;;;;;;5037277;28;20018;-77
2021/12/09 06:46:37;;;;;;;8.88;4.43;;;2.20;91.90;;;;;;5036900;28;20037;-76
2021/12/09 06:49:04;;;;;;;13.43;4.95;;;2.20;92.00;;;;;;5037533;28;20041;-77
2021/12/09 06:51:30;;;;;;;10.85;4.95;;;2.20;92.00;;;;;;5024235;28;20472;-77
2021/12/09 06:53:56;;;;;;;8.73;3.83;;;2.20;92.00;;;;;;5037098;28;20033;-77
2021/12/09 06:56:27;;;;;;;11.07;4.68;;;2.20;92.00;;;;;;5037245;28;20026;-76
2021/12/09 06:58:53;;;;;;;17.60;9.23;;;2.20;92.00;;;;;;5037000;28;20052;-76
2021/12/09 07:01:20;;;;;;;18.70;10.77;;;2.20;92.00;;;;;;5037440;28;20048;-75
2021/12/09 07:03:45;;;;;;;21.35;10.68;;;2.20;92.00;;;;;;5037190;28;20033;-76
2021/12/09 07:06:12;;;;;;;20.38;11.48;;;2.20;92.00;;;;;;5036011;28;20030;-76
2021/12/09 07:08:45;;;;;;;19.65;10.05;;;2.20;91.90;;;;;;5036678;28;20392;-76
2021/12/09 07:11:16;;;;;;;14.50;8.48;;;2.20;91.90;;;;;;5036945;28;20056;-75
2021/12/09 07:13:43;;;;;;;21.27;8.38;;;2.20;91.80;;;;;;5039718;28;20082;-76
2021/12/09 07:16:09;;;;;;;13.80;9.15;;;2.20;91.80;;;;;;5041333;28;20021;-76
2021/12/09 07:18:36;;;;;;;14.10;7.35;;;2.20;91.80;;;;;;5040369;28;20036;-76
2021/12/09 07:21:02;;;;;;;14.05;7.50;;;2.20;91.80;;;;;;5030711;28;20045;-76
2021/12/09 07:23:28;;;;;;;13.55;7.50;;;2.20;91.70;;;;;;5038802;28;20057;-76
2021/12/09 07:25:54;;;;;;;14.60;7.38;;;2.20;91.70;;;;;;5040944;28;20068;-76
2021/12/09 07:28:20;;;;;;;14.52;8.50;;;2.20;91.80;;;;;;5040677;28;20030;-76
2021/12/09 07:30:46;;;;;;;19.15;9.13;;;2.20;91.80;;;;;;5041047;28;20057;-76
2021/12/09 07:33:12;;;;;;;15.38;9.15;;;2.20;91.80;;;;;;5040612;28;20029;-76
2021/12/09 07:35:39;;;;;;;15.75;8.88;;;2.30;91.80;;;;;;5040569;28;20028;-76
2021/12/09 07:38:05;;;;;;;16.45;9.13;;;2.30;91.90;;;;;;5040456;28;20017;-76
2021/12/09 07:40:31;;;;;;;20.00;10.73;;;2.30;91.90;;;;;;5040580;28;20083;-76
2021/12/09 07:42:58;;;;;;;18.98;12.57;;;2.40;91.90;;;;;;5040637;28;20083;-76
2021/12/09 07:45:26;;;;;;;15.50;10.73;;;2.40;91.90;;;;;;5040234;28;20031;-75
2021/12/09 07:47:52;;;;;;;14.70;9.35;;;2.40;91.90;;;;;;5040472;28;20053;-76
2021/12/09 07:50:21;;;;;;;11.80;7.72;;;2.40;92.00;;;;;;5040253;28;20022;-76
2021/12/09 07:52:50;;;;;;;11.13;7.47;;;2.50;92.00;;;;;;5040252;28;20057;-76
2021/12/09 07:55:17;;;;;;;11.52;6.93;;;2.50;91.90;;;;;;5040304;28;20072;-76
2021/12/09 07:57:44;;;;;;;14.05;6.07;;;2.50;91.90;;;;;;5040226;28;20064;-76
2021/12/09 08:00:13;;;;;;;14.05;5.80;;;2.50;91.90;;;;;;5040342;28;20061;-76
2021/12/09 08:02:43;;;;;;;12.00;5.50;;;2.60;92.00;;;;;;5039985;28;20439;-75
2021/12/09 08:05:10;;;;;;;9.00;5.90;;;2.60;92.00;;;;;;5038840;28;20057;-76
2021/12/09 08:07:36;;;;;;;12.02;6.75;;;2.60;92.00;;;;;;5039968;28;20025;-76
2021/12/09 08:10:02;;;;;;;10.82;5.88;;;2.70;92.00;;;;;;5039967;28;20024;-76
2021/12/09 08:12:28;;;;;;;14.48;5.85;;;2.70;92.00;;;;;;5039793;28;20028;-76
2021/12/09 08:14:54;;;;;;;14.75;6.35;;;2.70;92.00;;;;;;5039978;28;20025;-76
2021/12/09 08:17:44;;;;;;;9.68;5.50;;;2.80;92.00;;;;;;5039667;28;20049;-76
2021/12/09 08:20:11;;;;;;;12.80;5.82;;;2.80;92.00;;;;;;5036530;28;20030;-76
2021/12/09 08:22:37;;;;;;;13.20;5.38;;;2.80;92.00;;;;;;5030471;28;20029;-76
2021/12/09 08:25:06;;;;;;;14.38;5.88;;;2.90;92.10;;;;;;5038758;28;20026;-76
2021/12/09 08:27:33;;;;;;;12.05;5.13;;;2.90;92.10;;;;;;5038474;28;20116;-75
2021/12/09 08:30:01;;;;;;;10.65;5.55;;;2.90;92.10;;;;;;5039644;28;20488;-76
2021/12/09 08:32:27;;;;;;;12.00;5.32;;;3.00;92.10;;;;;;5039869;28;20029;-76
2021/12/09 08:34:56;;;;;;;12.00;7.00;;;3.00;92.10;;;;;;5039287;28;20029;-76
2021/12/09 08:37:22;;;;;;;10.70;4.95;;;3.00;92.10;;;;;;5039748;28;20064;-76
2021/12/09 08:39:48;;;;;;;11.75;5.50;;;3.00;92.00;;;;;;5039260;28;20038;-76
2021/12/09 08:42:14;;;;;;;11.20;5.40;;;3.00;92.00;;;;;;5039495;28;20452;-76
2021/12/09 08:44:40;;;;;;;15.13;7.32;;;3.00;92.10;;;;;;5038987;28;20028;-76
2021/12/09 08:47:06;;;;;;;15.35;8.73;;;3.10;92.10;;;;;;5039455;28;20033;-76
2021/12/09 08:49:32;;;;;;;17.00;9.05;;;3.10;92.10;;;;;;5039169;28;20022;-76
2021/12/09 08:51:58;;;;;;;28.23;17.42;;;3.10;92.10;;;;;;5039217;28;20452;-76
2021/12/09 08:54:24;;;;;;;28.60;16.70;;;3.20;92.20;;;;;;5039110;28;20045;-76
2021/12/09 08:56:51;;;;;;;26.20;14.82;;;3.20;92.10;;;;;;5039461;28;20022;-76
2021/12/09 08:59:22;;;;;;;22.60;13.38;;;3.20;92.10;;;;;;5038051;28;20455;-76
2021/12/09 09:01:49;;;;;;;18.08;11.55;;;3.30;92.20;;;;;;5039262;28;20095;-76
2021/12/09 09:04:14;;;;;;;15.18;9.20;;;3.30;92.20;;;;;;5039016;28;20084;-75
2021/12/09 09:06:58;;;;;;;16.05;9.27;;;3.40;92.20;;;;;;5038745;28;20025;-75
2021/12/09 09:09:26;;;;;;;15.43;10.23;;;3.40;92.20;;;;;;5027458;28;20392;-76
2021/12/09 09:11:53;;;;;;;18.30;11.82;;;3.50;92.20;;;;;;5038631;28;20021;-76
2021/12/09 09:14:19;;;;;;;18.38;12.68;;;3.50;92.20;;;;;;5039065;28;20483;-76
2021/12/09 09:16:45;;;;;;;17.92;13.20;;;3.60;92.30;;;;;;5038484;28;20036;-76
2021/12/09 09:19:13;;;;;;;16.75;11.38;;;3.60;92.30;;;;;;5038859;28;20025;-75
2021/12/09 09:21:39;;;;;;;17.73;11.85;;;3.70;92.30;;;;;;5025714;28;20030;-76
2021/12/09 09:24:05;;;;;;;16.40;10.45;;;3.70;92.30;;;;;;5038489;28;20145;-76
2021/12/09 09:26:31;;;;;;;12.88;9.35;;;3.80;92.30;;;;;;5038733;28;20084;-76
2021/12/09 09:28:58;;;;;;;17.42;9.40;;;3.90;92.40;;;;;;5038585;28;20025;-76
2021/12/09 09:31:28;;;;;;;18.85;9.55;;;4.00;92.40;;;;;;5038435;28;20030;-76
2021/12/09 09:33:54;;;;;;;17.05;10.10;;;4.00;92.40;;;;;;5037140;28;20393;-76
2021/12/09 09:36:21;;;;;;;17.65;9.48;;;4.10;92.70;;;;;;5036653;28;20051;-76
2021/12/09 09:38:47;;;;;;;16.75;8.85;;;4.10;92.40;;;;;;5038059;28;20126;-76
2021/12/09 09:41:16;;;;;;;17.67;10.60;;;4.20;92.40;;;;;;5038219;28;20025;-76
2021/12/09 09:46:21;;;;;;;22.38;11.93;;;4.30;92.40;;;;;;5037843;28;20027;-77
2021/12/09 09:48:49;;;;;;;35.90;15.77;;;4.40;92.50;;;;;;5037842;28;20028;-77
2021/12/09 09:51:19;;;;;;;38.10;17.23;;;4.40;92.50;;;;;;5037641;28;20022;-76
2021/12/09 09:53:45;;;;;;;32.25;16.20;;;4.50;92.50;;;;;;5035947;28;20049;-76
2021/12/09 09:56:15;;;;;;;31.83;15.85;;;4.50;92.50;;;;;;5037499;28;20026;-76
2021/12/09 09:58:44;;;;;;;25.60;14.20;;;4.60;92.60;;;;;;5036665;28;20025;-76
2021/12/09 10:01:10;;;;;;;20.25;12.80;;;4.70;92.70;;;;;;5025882;28;20495;-76
2021/12/09 10:03:42;;;;;;;17.63;10.65;;;4.70;92.70;;;;;;5037764;28;20397;-76
2021/12/09 10:06:10;;;;;;;17.70;9.32;;;4.90;92.70;;;;;;5036387;28;20450;-76
2021/12/09 10:08:36;;;;;;;18.48;8.18;;;4.90;92.80;;;;;;5037793;28;20041;-76
2021/12/09 10:11:03;;;;;;;11.07;7.05;;;5.00;92.80;;;;;;5037933;28;20499;-76
2021/12/09 10:13:33;;;;;;;11.65;6.40;;;5.20;92.80;;;;;;5037512;28;21074;-76
2021/12/09 10:16:01;;;;;;;17.70;6.57;;;5.20;92.90;;;;;;5038043;28;20021;-76
2021/12/09 10:18:45;;;;;;;11.18;5.18;;;5.40;92.90;;;;;;5037220;28;20113;-76
2021/12/09 10:21:18;;;;;;;6.75;4.70;;;5.40;92.90;;;;;;5024772;28;20032;-77
2021/12/09 10:23:48;;;;;;;10.60;5.07;;;5.50;92.90;;;;;;5037242;28;20029;-77
2021/12/09 10:26:14;;;;;;;9.88;5.57;;;5.60;92.90;;;;;;5037430;28;20481;-76
2021/12/09 10:28:44;;;;;;;9.95;5.32;;;5.70;92.90;;;;;;5036459;28;20025;-76
2021/12/09 10:31:16;;;;;;;16.95;6.70;;;5.80;92.90;;;;;;5037426;28;20064;-76
2021/12/09 10:34:08;;;;;;;;;;;5.90;93.00;;;;;;5038002;28;20048;-77
2021/12/09 10:36:45;;;;;;;15.45;4.60;;;6.00;93.00;;;;;;5037054;28;19941;-76
2021/12/09 10:39:25;;;;;;;10.20;2.78;;;6.10;93.10;;;;;;5037256;28;20042;-76
2021/12/09 10:41:52;;;;;;;9.85;2.65;;;6.20;93.10;;;;;;5037705;28;20022;-76
2021/12/09 10:44:49;;;;;;;6.78;2.60;;;6.30;93.20;;;;;;5036944;28;20021;-76
2021/12/09 10:47:36;;;;;;;6.57;2.10;;;6.40;93.10;;;;;;5028239;28;20034;-76
2021/12/09 10:50:19;;;;;;;8.18;3.45;;;6.40;93.10;;;;;;5025224;28;20380;-76
2021/12/09 10:52:50;;;;;;;11.52;3.20;;;6.40;93.10;;;;;;5037220;28;20022;-76
2021/12/09 10:55:30;;;;;;;8.98;2.60;;;6.60;93.20;;;;;;5037268;28;20017;-76
2021/12/09 10:58:09;;;;;;;13.35;3.83;;;6.70;93.10;;;;;;5037147;28;20373;-77
2021/12/09 11:00:40;;;;;;;10.63;2.92;;;6.70;93.10;;;;;;5036984;28;20042;-76
2021/12/09 11:03:23;;;;;;;8.40;2.72;;;6.70;93.10;;;;;;5036029;28;20037;-77
2021/12/09 11:06:00;;;;;;;11.38;2.97;;;6.80;93.20;;;;;;5036875;28;20061;-76
2021/12/09 11:08:43;;;;;;;8.52;3.40;;;6.80;93.20;;;;;;5035655;28;20116;-76
2021/12/09 11:11:28;;;;;;;8.65;2.45;;;6.90;93.20;;;;;;5022710;28;20584;-77
2021/12/09 11:13:58;;;;;;;7.18;2.72;;;7.00;93.20;;;;;;5035745;28;20648;-76
2021/12/09 11:16:28;;;;;;;6.75;2.70;;;7.10;93.10;;;;;;5037478;28;20045;-76
2021/12/09 11:19:31;;;;;;;5.95;2.50;;;7.10;93.10;;;;;;5035913;28;20088;-76
2021/12/09 11:22:08;;;;;;;7.05;2.63;;;7.20;93.10;;;;;;5036823;28;20028;-76
2021/12/09 11:24:38;;;;;;;12.38;3.42;;;7.20;93.10;;;;;;5037120;28;20069;-75
2021/12/09 11:27:08;;;;;;;7.45;3.70;;;7.30;93.10;;;;;;5029893;28;20028;-78
2021/12/09 11:29:36;;;;;;;9.68;3.53;;;7.30;93.10;;;;;;5023779;28;20108;-76
2021/12/09 11:34:55;;;;;;;17.92;6.18;;;7.40;93.00;;;;;;5033053;28;20040;-77
2021/12/09 11:39:51;;;;;;;16.67;6.53;;;7.50;92.90;;;;;;5036359;28;20080;-78
2021/12/09 11:42:25;;;;;;;12.50;3.63;;;7.50;92.90;;;;;;5036549;28;20025;-76
2021/12/09 11:44:51;;;;;;;12.98;4.15;;;7.60;93.00;;;;;;5026989;28;20033;-77
2021/12/09 11:47:17;;;;;;;10.52;3.25;;;7.60;92.90;;;;;;5036690;28;20020;-76
2021/12/09 11:49:44;;;;;;;16.25;6.22;;;7.60;93.00;;;;;;5036332;28;20081;-77
2021/12/09 11:52:15;;;;;;;14.52;5.95;;;7.60;93.10;;;;;;5036545;28;20507;-77
2021/12/09 11:54:49;;;;;;;76.20;36.95;;;7.60;93.10;;;;;;5036476;28;20022;-77
2021/12/09 11:57:32;;;;;;;52.90;27.48;;;7.60;93.20;;;;;;5036273;28;20089;-77
2021/12/09 12:11:58;;;;;;;14.02;7.07;;;7.70;93.70;;;;;;5034556;28;20535;-73
2021/12/09 12:14:36;;;;;;;14.50;7.28;;;7.70;93.70;;;;;;5040075;28;20022;-76
2021/12/09 12:19:56;;;;;;;8.07;5.53;;;7.70;93.70;;;;;;5038697;28;20021;-76
2021/12/09 12:23:01;;;;;;;15.32;7.25;;;7.80;93.80;;;;;;5037542;28;20028;-77
2021/12/09 12:37:19;;;;;;;15.38;9.30;;;7.80;94.00;;;;;;5030446;28;20021;-78
2021/12/09 12:42:23;;;;;;;11.88;5.50;;;7.80;94.10;;;;;;5039177;28;20021;-78
2021/12/09 12:45:33;;;;;;;11.40;7.43;;;7.80;94.10;;;;;;5039028;28;20033;-78
2021/12/09 12:50:33;;;;;;;13.23;7.40;;;7.90;94.30;;;;;;5038887;28;20109;-78
2021/12/09 12:53:39;;;;;;;13.32;5.20;;;7.80;94.30;;;;;;5039060;28;20036;-77
2021/12/09 12:56:11;;;;;;;10.43;4.13;;;7.90;94.30;;;;;;5038114;28;20042;-78
2021/12/09 12:58:37;;;;;;;10.07;4.63;;;7.90;94.30;;;;;;5038841;28;20036;-76
2021/12/09 13:01:19;;;;;;;13.95;3.72;;;8.00;94.40;;;;;;5039154;28;20034;-77
2021/12/09 13:03:53;;;;;;;11.00;4.40;;;8.00;94.40;;;;;;5038848;28;20032;-77
2021/12/09 13:06:57;;;;;;;10.73;6.28;;;8.00;94.40;;;;;;5038729;28;20029;-77
2021/12/09 13:09:38;;;;;;;11.77;5.70;;;8.10;94.40;;;;;;5012421;28;20462;-77
2021/12/09 13:12:08;;;;;;;14.18;8.38;;;8.10;94.40;;;;;;5032692;28;20014;-77
2021/12/09 13:14:54;;;;;;;14.10;8.82;;;8.10;94.40;;;;;;5038892;28;20045;-77
2021/12/09 13:17:47;;;;;;;15.85;8.63;;;8.20;94.60;;;;;;5027658;28;20092;-78
2021/12/09 13:20:28;;;;;;;25.17;14.68;;;8.20;94.50;;;;;;5033396;28;20452;-76
2021/12/09 13:23:26;;;;;;;15.23;8.13;;;8.20;94.40;;;;;;5043692;28;20506;-76
2021/12/09 13:26:27;;;;;;;16.67;8.93;;;8.30;94.60;;;;;;5032781;28;20067;-76
2021/12/09 13:29:23;;;;;;;13.60;6.53;;;8.30;94.50;;;;;;5032798;28;20061;-76
2021/12/09 13:32:11;;;;;;;16.75;8.32;;;8.20;94.50;;;;;;5036808;28;20021;-77
2021/12/09 13:34:47;;;;;;;14.23;7.22;;;8.20;94.50;;;;;;5032603;28;20098;-76
2021/12/09 13:48:20;;;;;;;75.78;36.30;;;8.30;94.60;;;;;;5031931;28;20041;-79
2021/12/09 13:51:22;;;;;;;67.15;41.33;;;8.30;94.50;;;;;;5037435;28;20029;-79
2021/12/09 13:56:23;;;;;;;13.25;7.78;;;8.30;94.60;;;;;;5030526;28;20056;-78
2021/12/09 13:58:49;;;;;;;13.60;6.63;;;8.30;94.50;;;;;;5032727;28;20089;-82